Airfield :
LOGIN :

Register | Disclaimer

   EN    FR    IT 

 










Legend :    VFR   Marginal VFR   IFR   Intensive IFR   Very Intensive IFR
Visi :
Ceiling :
>= 8 km
>= 3000ft
5 to 8 km
1000 to 3000 ft
1500m to 5 km
500 to 1000 ft
800 to 1500m
200 to 500 ft
< 800m
< 200 ft
Symbols :   Thunderstorms  Fog  Heavy snow  Heavy precipitations  Wind > 20 kt
SIGMETs :     Misc.  Thunderstorms  Icing  Turbulence  Mountain Waves  Volcanic Ashes







- Airport Elevation : 49 ft
- IATA code : GLZ


EHGR - Gilze-Rijen Airbase

CURRENT METAR :
  • 191843Z AUTO VRB01KT 7000 BR OVC170 11/11 Q1020 WHT VRB03KT 7000 BR FEW030

EXPIRED METARs :
  • 191825Z AUTO 26001KT 9999 OVC170 12/11 Q1020 BLU VRB03KT CAVOK
  • 191814Z AUTO VRB02KT 9999 OVC170 12/11 Q1020 BLU VRB03KT CAVOK
  • 191755Z AUTO VRB02KT 9999 OVC170 14/11 Q1020 BLU VRB03KT CAVOK
  • 191725Z AUTO VRB01KT 9999 BKN032 BKN037 OVC045 15/11 Q1019 BLU 34006KT 9999 SCT030
  • 191655Z AUTO 03003KT 340V050 9999 OVC170 15/12 Q1019 BLU 34006KT 9999 SCT030
  • 191625Z AUTO 02004KT 340V060 9999 BKN035 BKN039 OVC071 15/12 Q1019 BLU 34006KT 9999 SCT030
  • 191557Z AUTO 01006G17KT 320V050 9999 -RA SCT031 BKN041 BKN048 16/11 Q1019 BLU 30006KT 9999 SCT030 TEMPO FEW020 SCT025CB BKN030

TAF TAF EHGR
Valid from the 19 at 17:00 until the 20 at 05:00 UTC


191642Z 1917/2005 02005KT 9999 SCT030
PROB30
TEMPO 1917/1919 SCT022CB
BECMG 1920/1922 27004KT
BECMG 1922/2001 3000 BR
No reported NOTAMs for that airfield.



MET'MAP, your aeronautical weather chart ! - Copyright ORBIFLY December 2007 - Disclaimer

ORBIFLY MET'MAP TEAM :

Programming & Development : Alexandra Zaïnal
Concept & Development : Baudouin d'Aumeries
Co-Development & Prog : Marc-Olivier Méhu
Technical & hardware support : Manuel Goepfert

Contact : metmap@orbifly.com




SOURCES & CREDITS :

   NOAA